Time;durP1;ratioP1;P1;durP2;ratioP2;P2;SDS_P1;SDS_P2;PMS_P1;PMS_P2;Temp;Humidity;BMP_temperature;BMP_pressure;BME280_temperature;BME280_humidity;BME280_pressure;Samples;Min_cycle;Max_cycle;Signal;HPM_P1;HPM_P2
2021/01/10 00:02:13;;;;;;;41.78;17.17;;;1.40;94.70;;;;;;5067909;28;20021;-73
2021/01/10 00:04:40;;;;;;;44.85;16.30;;;1.40;94.60;;;;;;5071712;28;20476;-73
2021/01/10 00:07:06;;;;;;;42.53;17.92;;;1.30;94.50;;;;;;5068167;28;20563;-73
2021/01/10 00:09:31;;;;;;;41.17;17.50;;;1.30;94.60;;;;;;5072334;28;20030;-73
2021/01/10 00:11:57;;;;;;;41.92;17.92;;;1.30;94.70;;;;;;5064999;28;20380;-74
2021/01/10 00:14:23;;;;;;;47.58;18.20;;;1.30;94.80;;;;;;5063353;28;20055;-73
2021/01/10 00:16:49;;;;;;;40.05;17.55;;;1.30;94.90;;;;;;5070165;28;20051;-73
2021/01/10 00:19:14;;;;;;;46.92;18.60;;;1.30;94.80;;;;;;5058365;28;20074;-73
2021/01/10 00:21:40;;;;;;;45.58;17.33;;;1.30;94.70;;;;;;5073004;28;20115;-74
2021/01/10 00:24:06;;;;;;;41.97;18.15;;;1.30;94.20;;;;;;5069451;28;20083;-73
2021/01/10 00:26:36;;;;;;;40.97;18.15;;;1.30;94.50;;;;;;5058681;28;20036;-74
2021/01/10 00:29:06;;;;;;;42.03;18.23;;;1.30;94.10;;;;;;5066793;28;20016;-73
2021/01/10 00:31:32;;;;;;;43.47;18.48;;;1.30;94.70;;;;;;5061886;28;20024;-73
2021/01/10 00:33:58;;;;;;;45.90;18.52;;;1.20;94.70;;;;;;5075339;28;20115;-73
2021/01/10 00:36:31;;;;;;;43.28;17.00;;;1.20;94.70;;;;;;5076313;28;20547;-73
2021/01/10 00:38:57;;;;;;;38.25;16.45;;;1.10;95.00;;;;;;5068742;28;20090;-73
2021/01/10 00:41:23;;;;;;;35.67;16.85;;;1.10;94.60;;;;;;5072227;28;20036;-73
2021/01/10 00:43:48;;;;;;;37.53;17.67;;;1.10;94.10;;;;;;5047268;28;20032;-73
2021/01/10 00:46:14;;;;;;;37.28;16.13;;;1.10;94.60;;;;;;5072150;28;20016;-73
2021/01/10 00:48:40;;;;;;;35.70;15.88;;;1.10;94.40;;;;;;5068439;28;20146;-73
2021/01/10 00:51:12;;;;;;;29.13;13.63;;;1.10;94.20;;;;;;5077753;28;20546;-73
2021/01/10 00:53:38;;;;;;;33.58;16.13;;;1.00;94.60;;;;;;5076938;28;20071;-73
2021/01/10 00:56:05;;;;;;;31.42;14.98;;;1.00;94.80;;;;;;5083795;28;20078;-73
2021/01/10 00:58:31;;;;;;;26.92;13.38;;;1.00;94.70;;;;;;5069870;28;20122;-73
2021/01/10 01:00:57;;;;;;;30.30;14.82;;;1.00;94.40;;;;;;5071675;28;20472;-74
2021/01/10 01:03:23;;;;;;;30.55;14.60;;;0.90;94.30;;;;;;5061679;28;20051;-73
2021/01/10 01:05:49;;;;;;;33.22;14.63;;;0.80;94.60;;;;;;5068857;28;20025;-73
2021/01/10 01:08:14;;;;;;;34.70;16.08;;;0.90;94.60;;;;;;5067350;28;20124;-73
2021/01/10 01:10:44;;;;;;;29.90;13.63;;;0.80;94.80;;;;;;5068629;28;20071;-73
2021/01/10 01:13:10;;;;;;;29.30;13.38;;;0.90;94.30;;;;;;5067129;28;20024;-73
2021/01/10 01:15:35;;;;;;;30.48;14.52;;;0.90;94.20;;;;;;5072786;28;20074;-73
2021/01/10 01:18:01;;;;;;;29.17;13.10;;;1.00;94.00;;;;;;5067517;28;20033;-73
2021/01/10 01:20:27;;;;;;;31.42;14.10;;;0.90;94.20;;;;;;5079652;28;20031;-74
2021/01/10 01:22:52;;;;;;;29.95;14.15;;;0.90;94.60;;;;;;5074029;28;20111;-73
2021/01/10 01:25:18;;;;;;;31.10;14.50;;;0.90;94.40;;;;;;5069209;28;20103;-74
2021/01/10 01:27:44;;;;;;;29.27;14.00;;;0.80;94.60;;;;;;5067583;28;20021;-73
2021/01/10 01:30:10;;;;;;;30.95;13.20;;;0.80;94.70;;;;;;5063792;28;20070;-73
2021/01/10 01:32:36;;;;;;;28.77;14.00;;;0.80;94.50;;;;;;5079836;22;20048;-73
2021/01/10 01:35:04;;;;;;;30.90;14.95;;;0.70;95.00;;;;;;5019105;28;20060;-73
2021/01/10 01:37:29;;;;;;;31.48;14.40;;;0.70;94.90;;;;;;5022741;28;20474;-73
2021/01/10 01:39:55;;;;;;;29.40;14.40;;;0.80;94.70;;;;;;5036674;28;20025;-73
2021/01/10 01:42:20;;;;;;;31.13;15.20;;;0.70;94.60;;;;;;5028958;28;20057;-73
2021/01/10 01:44:47;;;;;;;31.17;14.07;;;0.80;94.80;;;;;;5015844;28;20491;-73
2021/01/10 01:47:17;;;;;;;131.52;46.40;;;0.70;94.60;;;;;;5016025;28;20117;-73
2021/01/10 01:49:43;;;;;;;49.57;21.07;;;0.80;95.10;;;;;;5016911;28;20503;-73
2021/01/10 01:52:09;;;;;;;244.35;108.93;;;0.70;94.70;;;;;;5018750;28;20371;-73
2021/01/10 01:54:35;;;;;;;49.03;23.65;;;0.80;94.60;;;;;;5001577;28;20029;-73
2021/01/10 01:57:01;;;;;;;37.58;17.17;;;0.80;94.60;;;;;;5016933;28;20091;-73
2021/01/10 01:59:27;;;;;;;35.15;16.52;;;0.80;94.80;;;;;;5017603;28;20472;-72
2021/01/10 02:01:52;;;;;;;35.33;15.63;;;0.80;94.80;;;;;;4999112;28;20120;-73
2021/01/10 02:04:39;;;;;;;34.15;16.65;;;0.80;94.70;;;;;;4998846;28;20072;-73
2021/01/10 02:07:10;;;;;;;32.22;15.07;;;0.80;94.60;;;;;;5018598;28;20120;-73
2021/01/10 02:10:01;;;;;;;37.33;17.10;;;0.70;94.70;;;;;;5019061;28;20117;-73
2021/01/10 02:12:30;;;;;;;37.03;15.95;;;0.70;94.60;;;;;;5007696;28;20061;-72
2021/01/10 02:15:06;;;;;;;35.53;17.08;;;0.70;94.90;;;;;;5015147;28;20036;-73
2021/01/10 02:17:34;;;;;;;39.15;17.30;;;0.80;94.80;;;;;;5016889;28;20430;-73
2021/01/10 02:20:10;;;;;;;36.22;17.42;;;0.80;94.80;;;;;;5015240;28;20049;-72
2021/01/10 02:22:43;;;;;;;36.70;17.10;;;0.70;95.00;;;;;;5015766;28;20076;-73
2021/01/10 02:25:11;;;;;;;42.50;17.20;;;0.70;94.90;;;;;;5014707;28;20029;-73
2021/01/10 02:27:38;;;;;;;33.05;16.23;;;0.70;94.90;;;;;;5016777;28;20405;-73
2021/01/10 02:30:04;;;;;;;35.80;16.77;;;0.70;94.40;;;;;;5012648;28;20075;-73
2021/01/10 02:32:32;;;;;;;40.58;16.58;;;0.70;94.40;;;;;;5002394;28;20562;-73
2021/01/10 02:35:00;;;;;;;34.50;16.30;;;0.70;94.90;;;;;;5014878;28;20033;-73
2021/01/10 02:37:43;;;;;;;36.50;17.13;;;0.70;94.40;;;;;;5018180;28;20428;-73
2021/01/10 02:40:11;;;;;;;37.35;17.17;;;0.70;94.60;;;;;;5017896;28;20327;-73
2021/01/10 02:42:49;;;;;;;37.28;17.67;;;0.60;94.60;;;;;;5019031;28;20033;-73
2021/01/10 02:45:19;;;;;;;37.97;16.52;;;0.60;94.80;;;;;;5014958;28;20026;-73
2021/01/10 02:47:47;;;;;;;35.55;17.60;;;0.60;94.90;;;;;;5010945;28;20033;-73
2021/01/10 02:50:17;;;;;;;35.13;16.45;;;0.60;94.90;;;;;;5015764;28;20036;-73
2021/01/10 02:52:46;;;;;;;38.17;17.00;;;0.60;94.80;;;;;;5015473;28;20032;-73
2021/01/10 02:55:12;;;;;;;31.45;16.35;;;0.70;94.60;;;;;;4998691;28;20021;-73
2021/01/10 02:57:39;;;;;;;37.75;17.52;;;0.80;94.20;;;;;;5017574;28;20083;-73
2021/01/10 03:00:07;;;;;;;35.85;15.63;;;0.80;94.50;;;;;;5016889;28;20463;-73
2021/01/10 03:02:35;;;;;;;34.47;16.13;;;0.80;94.30;;;;;;5010899;28;20071;-73
2021/01/10 03:05:02;;;;;;;37.83;16.90;;;0.80;94.40;;;;;;5014343;28;20358;-73
2021/01/10 03:07:29;;;;;;;37.47;18.38;;;0.80;94.80;;;;;;5016476;28;20025;-73
2021/01/10 03:09:55;;;;;;;40.67;17.83;;;0.80;94.80;;;;;;5013373;28;20484;-73
2021/01/10 03:12:26;;;;;;;39.40;18.13;;;0.80;94.90;;;;;;4999980;28;20034;-73
2021/01/10 03:14:56;;;;;;;36.47;17.17;;;0.80;94.90;;;;;;4998715;28;20116;-73
2021/01/10 03:17:42;;;;;;;36.45;16.33;;;0.80;94.70;;;;;;5018347;28;20516;-73
2021/01/10 03:20:10;;;;;;;41.03;18.27;;;0.80;94.60;;;;;;4996071;28;20033;-73
2021/01/10 03:22:36;;;;;;;32.72;16.65;;;0.90;94.30;;;;;;5001007;28;20030;-73
2021/01/10 03:25:04;;;;;;;39.53;17.95;;;1.00;93.70;;;;;;5023279;28;20090;-73
2021/01/10 03:27:30;;;;;;;38.20;18.13;;;0.90;94.10;;;;;;5003354;28;20168;-73
2021/01/10 03:29:56;;;;;;;37.10;16.48;;;0.90;94.20;;;;;;5017348;28;20036;-73
2021/01/10 03:32:22;;;;;;;39.25;17.70;;;0.90;94.00;;;;;;5012895;28;20030;-73
2021/01/10 03:34:48;;;;;;;39.45;16.98;;;0.90;94.40;;;;;;5010107;28;20032;-73
2021/01/10 03:37:14;;;;;;;41.13;18.10;;;0.90;94.30;;;;;;5014251;28;20026;-73
2021/01/10 03:39:40;;;;;;;42.20;16.92;;;0.90;94.50;;;;;;5015530;28;20034;-73
2021/01/10 03:42:06;;;;;;;38.47;17.55;;;0.90;94.50;;;;;;5017848;28;20080;-73
2021/01/10 03:44:35;;;;;;;38.38;17.20;;;0.90;94.50;;;;;;5017323;28;20021;-73
2021/01/10 03:47:01;;;;;;;37.13;17.73;;;0.90;94.60;;;;;;5018648;28;20107;-73
2021/01/10 03:49:26;;;;;;;37.30;17.17;;;0.90;94.60;;;;;;5015632;28;20026;-73
2021/01/10 03:51:52;;;;;;;38.45;17.17;;;0.90;94.70;;;;;;5002593;28;20030;-73
2021/01/10 03:54:18;;;;;;;31.00;15.25;;;0.90;94.50;;;;;;5019612;28;20061;-73
2021/01/10 03:56:44;;;;;;;34.08;15.85;;;1.00;93.90;;;;;;5019905;28;20030;-73
2021/01/10 03:59:10;;;;;;;35.08;16.40;;;1.10;93.70;;;;;;5004287;28;20030;-73
2021/01/10 04:01:35;;;;;;;36.60;17.73;;;1.10;94.00;;;;;;5019607;28;20067;-73
2021/01/10 04:04:01;;;;;;;37.63;17.55;;;1.00;94.10;;;;;;5002434;28;20021;-73
2021/01/10 04:06:28;;;;;;;32.00;15.90;;;1.00;94.30;;;;;;5020782;28;20104;-73
2021/01/10 04:08:55;;;;;;;31.58;15.98;;;1.00;94.10;;;;;;5001962;28;20041;-73
2021/01/10 04:11:21;;;;;;;36.47;17.63;;;1.00;94.40;;;;;;5018265;28;20104;-73
2021/01/10 04:13:47;;;;;;;34.25;16.25;;;1.00;94.40;;;;;;5016818;28;20025;-73
2021/01/10 04:16:13;;;;;;;38.25;17.48;;;0.90;94.20;;;;;;5019325;28;20080;-73
2021/01/10 04:18:39;;;;;;;34.83;16.95;;;0.90;94.20;;;;;;5018875;28;20021;-73
2021/01/10 04:21:05;;;;;;;36.38;17.65;;;0.90;94.00;;;;;;4998652;28;20736;-73
2021/01/10 04:23:31;;;;;;;36.42;16.60;;;1.00;93.90;;;;;;5017385;28;20076;-73
2021/01/10 04:25:56;;;;;;;41.92;18.60;;;0.90;94.10;;;;;;5020138;28;20029;-73
2021/01/10 04:28:22;;;;;;;36.80;17.27;;;0.90;94.40;;;;;;5021226;28;20017;-73
2021/01/10 04:30:48;;;;;;;43.40;18.58;;;0.80;94.50;;;;;;5002887;28;20029;-73
2021/01/10 04:33:13;;;;;;;42.55;18.13;;;0.80;94.50;;;;;;5018303;28;20065;-73
2021/01/10 04:35:39;;;;;;;41.72;19.27;;;0.80;94.60;;;;;;5020447;28;20211;-73
2021/01/10 04:38:05;;;;;;;44.33;17.63;;;0.80;94.70;;;;;;5019725;28;20470;-73
2021/01/10 04:40:32;;;;;;;41.13;18.38;;;0.80;94.70;;;;;;5016379;28;20085;-73
2021/01/10 04:42:58;;;;;;;40.17;17.75;;;0.70;94.80;;;;;;5018633;28;20405;-73
2021/01/10 04:45:23;;;;;;;44.38;19.58;;;0.60;94.70;;;;;;5035200;28;20030;-73
2021/01/10 04:47:49;;;;;;;45.88;19.30;;;0.70;94.80;;;;;;4998240;28;20073;-74
2021/01/10 04:50:16;;;;;;;44.75;19.55;;;0.70;94.90;;;;;;5001228;28;20034;-73
2021/01/10 04:52:44;;;;;;;45.30;18.73;;;0.60;95.00;;;;;;5003611;28;20029;-73
2021/01/10 04:55:11;;;;;;;44.53;18.73;;;0.60;95.10;;;;;;5015983;28;20037;-73
2021/01/10 04:57:39;;;;;;;46.95;19.17;;;0.60;95.20;;;;;;5018831;28;20026;-73
2021/01/10 05:00:06;;;;;;;46.33;20.08;;;0.60;95.30;;;;;;5018345;28;20030;-73
2021/01/10 05:02:38;;;;;;;43.88;19.98;;;0.60;95.10;;;;;;5014382;28;20083;-73
2021/01/10 05:05:04;;;;;;;47.78;20.88;;;0.60;95.20;;;;;;5017085;28;20022;-73
2021/01/10 05:07:34;;;;;;;45.58;20.08;;;0.50;95.20;;;;;;5015982;28;20030;-73
2021/01/10 05:10:00;;;;;;;44.33;18.57;;;0.60;95.10;;;;;;5013891;28;20034;-73
2021/01/10 05:12:27;;;;;;;44.90;18.58;;;0.60;95.20;;;;;;5019393;28;20029;-73
2021/01/10 05:14:53;;;;;;;45.95;20.00;;;0.70;94.70;;;;;;5011910;28;20393;-73
2021/01/10 05:17:21;;;;;;;48.28;20.80;;;0.60;95.20;;;;;;5016556;28;20021;-73
2021/01/10 05:19:48;;;;;;;48.28;19.80;;;0.60;95.20;;;;;;5013069;28;20125;-73
2021/01/10 05:22:18;;;;;;;45.25;19.15;;;0.60;95.40;;;;;;5014976;28;20084;-74
2021/01/10 05:24:44;;;;;;;56.35;19.60;;;0.60;95.40;;;;;;5014667;28;20508;-73
2021/01/10 05:27:10;;;;;;;52.20;20.60;;;0.70;95.30;;;;;;5013037;28;20040;-73
2021/01/10 05:29:36;;;;;;;43.38;18.75;;;0.60;95.10;;;;;;5015364;28;20026;-74
2021/01/10 05:32:03;;;;;;;46.15;19.33;;;0.70;95.00;;;;;;5012562;28;20025;-73
2021/01/10 05:34:32;;;;;;;41.45;17.88;;;0.70;94.90;;;;;;4999039;28;20044;-73
2021/01/10 05:37:11;;;;;;;46.50;20.42;;;0.70;95.00;;;;;;5013334;28;20072;-73
2021/01/10 05:39:44;;;;;;;43.40;18.88;;;0.70;94.90;;;;;;5016094;28;20021;-73
2021/01/10 05:42:10;;;;;;;47.78;19.63;;;0.80;94.80;;;;;;4998921;28;20028;-73
2021/01/10 05:44:39;;;;;;;52.35;20.52;;;0.80;94.80;;;;;;5013130;28;20029;-73
2021/01/10 05:47:08;;;;;;;50.63;19.40;;;0.80;95.30;;;;;;5015406;28;20138;-73
2021/01/10 05:49:34;;;;;;;43.80;18.13;;;0.80;95.20;;;;;;5019222;28;20109;-75
2021/01/10 05:52:07;;;;;;;39.45;17.52;;;0.80;94.80;;;;;;5012168;28;20120;-72
2021/01/10 05:54:50;;;;;;;46.17;18.50;;;0.80;94.90;;;;;;5017651;28;20064;-72
2021/01/10 05:57:26;;;;;;;43.97;17.48;;;0.80;95.10;;;;;;5034308;28;20029;-72
2021/01/10 05:59:53;;;;;;;33.33;14.85;;;0.80;95.00;;;;;;5017121;28;20043;-73
2021/01/10 06:02:29;;;;;;;42.03;17.10;;;0.80;94.60;;;;;;5018618;28;20113;-72
2021/01/10 06:05:14;;;;;;;39.83;15.50;;;0.80;94.80;;;;;;4993268;28;20030;-73
2021/01/10 06:07:41;;;;;;;40.28;16.65;;;0.80;94.80;;;;;;5012688;28;20397;-73
2021/01/10 06:10:09;;;;;;;38.08;16.00;;;0.80;94.90;;;;;;5013825;28;20029;-73
2021/01/10 06:12:35;;;;;;;41.50;16.67;;;0.80;94.90;;;;;;5014848;28;20026;-73
2021/01/10 06:15:18;;;;;;;46.75;18.23;;;0.80;95.00;;;;;;5011404;28;20028;-73
2021/01/10 06:17:47;;;;;;;48.05;19.08;;;0.90;94.90;;;;;;5011269;28;20055;-73
2021/01/10 06:20:24;;;;;;;47.17;18.95;;;0.90;94.60;;;;;;4998317;28;20014;-73
2021/01/10 06:22:51;;;;;;;51.40;19.75;;;0.90;94.70;;;;;;4997257;28;20030;-73
2021/01/10 06:25:27;;;;;;;48.47;19.00;;;0.90;94.90;;;;;;5018861;28;20523;-73
2021/01/10 06:28:14;;;;;;;43.60;17.92;;;0.90;95.10;;;;;;5001387;28;20060;-73
2021/01/10 06:30:56;;;;;;;42.33;18.02;;;1.00;94.50;;;;;;4995360;28;20025;-73
2021/01/10 06:33:32;;;;;;;49.03;18.63;;;1.00;94.60;;;;;;4995451;28;20037;-73
2021/01/10 06:36:05;;;;;;;44.08;18.42;;;1.10;94.50;;;;;;5002143;28;20022;-73
2021/01/10 06:38:36;;;;;;;48.20;20.02;;;1.00;94.50;;;;;;5017754;28;20037;-74
2021/01/10 06:41:39;;;;;;;42.58;17.00;;;1.00;94.50;;;;;;5011752;28;20371;-73
2021/01/10 06:44:08;;;;;;;45.80;17.27;;;1.00;94.70;;;;;;5025766;28;20030;-74
2021/01/10 06:46:34;;;;;;;41.35;16.83;;;1.00;94.80;;;;;;5016792;28;20033;-73
2021/01/10 06:49:06;;;;;;;48.33;18.00;;;0.90;94.90;;;;;;5020282;28;20393;-72
2021/01/10 06:51:33;;;;;;;47.55;18.92;;;0.90;95.00;;;;;;5013781;28;20145;-73
2021/01/10 06:54:05;;;;;;;46.45;18.58;;;0.90;94.90;;;;;;4992754;28;20036;-73
2021/01/10 06:56:33;;;;;;;44.88;18.42;;;0.90;95.00;;;;;;5003211;28;20518;-73
2021/01/10 06:59:11;;;;;;;48.35;18.73;;;1.00;94.70;;;;;;5012717;28;20585;-74
2021/01/10 07:01:50;;;;;;;43.08;16.80;;;1.00;94.90;;;;;;5030327;28;20029;-73
2021/01/10 07:04:20;;;;;;;45.50;17.60;;;0.90;94.90;;;;;;5011086;28;20037;-73
2021/01/10 07:06:46;;;;;;;45.97;18.80;;;0.90;95.10;;;;;;5013449;28;20504;-73
2021/01/10 07:09:12;;;;;;;44.28;17.95;;;0.90;95.00;;;;;;5011260;28;20069;-73
2021/01/10 07:11:39;;;;;;;43.75;18.05;;;0.90;94.90;;;;;;5014647;28;20026;-73
2021/01/10 07:14:04;;;;;;;42.15;17.88;;;1.00;95.00;;;;;;5017171;28;20057;-73
2021/01/10 07:16:31;;;;;;;43.33;18.27;;;1.00;94.80;;;;;;5015531;28;20107;-74
2021/01/10 07:18:58;;;;;;;41.88;17.80;;;1.00;94.90;;;;;;5010352;28;20038;-73
2021/01/10 07:21:36;;;;;;;47.88;18.38;;;1.00;94.80;;;;;;5016428;28;20036;-74
2021/01/10 07:24:19;;;;;;;47.28;17.60;;;1.00;94.80;;;;;;5015133;28;20048;-74
2021/01/10 07:26:49;;;;;;;42.13;17.42;;;1.00;94.90;;;;;;4993175;28;20057;-73
2021/01/10 07:29:41;;;;;;;40.65;16.15;;;1.00;95.00;;;;;;5014964;28;20489;-73
2021/01/10 07:32:14;;;;;;;39.85;16.65;;;1.00;94.90;;;;;;5016975;28;20061;-73
2021/01/10 07:34:46;;;;;;;38.55;16.33;;;1.10;95.00;;;;;;5013586;28;20532;-73
2021/01/10 07:37:15;;;;;;;42.45;16.58;;;1.10;94.80;;;;;;5003382;28;20037;-73
2021/01/10 07:39:50;;;;;;;38.67;15.82;;;1.10;95.10;;;;;;5005738;28;20362;-72
2021/01/10 07:42:17;;;;;;;39.88;15.30;;;1.10;94.80;;;;;;5014342;28;20049;-73
2021/01/10 07:44:49;;;;;;;39.30;15.93;;;1.20;94.70;;;;;;4999509;28;20028;-74
2021/01/10 07:47:15;;;;;;;37.80;16.13;;;1.10;94.80;;;;;;4999987;28;20389;-73
2021/01/10 07:49:53;;;;;;;41.60;16.67;;;1.10;94.70;;;;;;5011756;28;20493;-73
2021/01/10 07:52:49;;;;;;;35.58;14.43;;;1.20;94.60;;;;;;5015539;28;20034;-74
2021/01/10 07:55:17;;;;;;;37.63;15.35;;;1.20;94.50;;;;;;5017859;28;20034;-73
2021/01/10 07:58:13;;;;;;;40.38;15.35;;;1.20;94.80;;;;;;5032774;28;20711;-72
2021/01/10 08:00:45;;;;;;;35.83;14.45;;;1.20;94.70;;;;;;5014161;28;20034;-73
2021/01/10 08:03:19;;;;;;;37.30;15.65;;;1.20;94.70;;;;;;5013955;28;20034;-73
2021/01/10 08:06:03;;;;;;;34.60;13.88;;;1.30;94.80;;;;;;4996854;28;20041;-73
2021/01/10 08:08:44;;;;;;;36.40;14.75;;;1.30;94.60;;;;;;5017419;28;20035;-73
2021/01/10 08:11:11;;;;;;;32.17;13.32;;;1.30;94.90;;;;;;5001353;28;20033;-73
2021/01/10 08:13:38;;;;;;;31.45;13.38;;;1.40;94.40;;;;;;5012754;28;20034;-73
2021/01/10 08:16:06;;;;;;;32.80;13.05;;;1.40;94.50;;;;;;5024407;28;20033;-73
2021/01/10 08:18:49;;;;;;;28.83;13.15;;;1.40;94.80;;;;;;5005310;28;20099;-73
2021/01/10 08:21:16;;;;;;;27.05;12.70;;;1.40;94.80;;;;;;5013798;28;20116;-73
2021/01/10 08:23:53;;;;;;;33.25;13.02;;;1.40;94.10;;;;;;4994871;28;20128;-73
2021/01/10 08:26:20;;;;;;;29.10;12.50;;;1.50;94.30;;;;;;5014214;28;20037;-72
2021/01/10 08:28:48;;;;;;;35.53;14.45;;;1.50;94.30;;;;;;4999288;28;20025;-73
2021/01/10 08:31:16;;;;;;;34.60;14.45;;;1.40;94.60;;;;;;4996353;28;20033;-73
2021/01/10 08:33:43;;;;;;;33.72;13.40;;;1.40;94.50;;;;;;5016364;28;20041;-74
2021/01/10 08:36:11;;;;;;;30.88;13.57;;;1.40;94.40;;;;;;5015312;28;20562;-73
2021/01/10 08:39:04;;;;;;;30.38;13.82;;;1.40;94.70;;;;;;5001218;28;20049;-73
2021/01/10 08:41:32;;;;;;;28.05;12.45;;;1.40;94.70;;;;;;5019172;28;20487;-74
2021/01/10 08:43:59;;;;;;;30.00;12.25;;;1.40;94.40;;;;;;5006262;28;20101;-74
2021/01/10 08:46:28;;;;;;;30.40;12.82;;;1.50;94.40;;;;;;5013159;28;20319;-74
2021/01/10 08:48:54;;;;;;;32.80;13.02;;;1.60;94.10;;;;;;5014912;28;20040;-74
2021/01/10 08:51:32;;;;;;;26.05;12.50;;;1.70;93.80;;;;;;4996397;28;20820;-74
2021/01/10 08:53:58;;;;;;;29.90;13.20;;;1.70;93.60;;;;;;5002060;28;20068;-74
2021/01/10 08:56:24;;;;;;;33.22;13.73;;;1.80;93.70;;;;;;5000062;28;20025;-75
2021/01/10 08:58:55;;;;;;;32.28;13.52;;;1.70;94.30;;;;;;5001795;28;20022;-75
2021/01/10 09:01:21;;;;;;;32.10;13.02;;;1.60;94.40;;;;;;5022698;28;20038;-76
2021/01/10 09:04:10;;;;;;;28.50;12.93;;;1.60;94.30;;;;;;5014867;28;20384;-75
2021/01/10 09:07:01;;;;;;;34.55;13.95;;;1.60;94.50;;;;;;5029564;28;20084;-75
2021/01/10 09:09:42;;;;;;;28.90;13.05;;;1.60;94.70;;;;;;5016399;28;20042;-76
2021/01/10 09:12:35;;;;;;;30.02;14.10;;;1.60;94.60;;;;;;5019291;28;20026;-76
2021/01/10 09:15:10;;;;;;;30.38;13.13;;;1.60;94.40;;;;;;5017549;28;20033;-74
2021/01/10 09:17:39;;;;;;;32.47;12.85;;;1.60;94.70;;;;;;5010511;28;20931;-73
2021/01/10 09:20:12;;;;;;;28.92;12.93;;;1.60;94.80;;;;;;5014940;28;20042;-73
2021/01/10 09:22:38;;;;;;;29.40;12.32;;;1.60;94.80;;;;;;5031119;28;20096;-76
2021/01/10 09:25:13;;;;;;;29.42;13.70;;;1.70;94.80;;;;;;5013561;28;20022;-73
2021/01/10 09:27:38;;;;;;;32.35;13.48;;;1.70;94.50;;;;;;5024686;28;20420;-73
2021/01/10 09:30:06;;;;;;;38.80;15.40;;;1.80;94.40;;;;;;5017480;28;20028;-74
2021/01/10 09:32:32;;;;;;;29.33;14.15;;;1.80;94.90;;;;;;5014410;28;20497;-75
2021/01/10 09:34:59;;;;;;;32.33;12.68;;;1.90;94.40;;;;;;5014423;28;20088;-74
2021/01/10 09:37:29;;;;;;;29.08;13.57;;;1.90;94.20;;;;;;4999056;28;20088;-75
2021/01/10 09:40:09;;;;;;;25.58;12.45;;;2.00;93.90;;;;;;5018420;28;20068;-74
2021/01/10 09:42:46;;;;;;;31.70;12.75;;;2.00;93.80;;;;;;5020316;28;20041;-75
2021/01/10 09:45:13;;;;;;;29.67;12.60;;;2.00;93.90;;;;;;5019233;28;20362;-74
2021/01/10 09:47:41;;;;;;;30.55;12.95;;;2.10;93.70;;;;;;5011703;28;20508;-75
2021/01/10 09:50:10;;;;;;;27.55;12.20;;;2.10;93.50;;;;;;5009798;28;20026;-73
2021/01/10 09:52:51;;;;;;;28.48;13.32;;;2.10;93.60;;;;;;5017076;28;20554;-74
2021/01/10 09:55:25;;;;;;;30.23;13.48;;;2.10;93.70;;;;;;5010683;28;20589;-74
2021/01/10 09:57:51;;;;;;;28.65;14.10;;;2.10;93.60;;;;;;5011756;28;20030;-74
2021/01/10 10:00:18;;;;;;;30.30;13.32;;;2.20;93.60;;;;;;5017374;28;21585;-75
2021/01/10 10:02:45;;;;;;;30.08;13.60;;;2.20;93.70;;;;;;5013088;28;20145;-73
2021/01/10 10:05:18;;;;;;;29.40;13.50;;;2.20;93.70;;;;;;4997141;28;20022;-74
2021/01/10 10:07:49;;;;;;;29.48;13.13;;;2.30;93.60;;;;;;5015102;28;20068;-74
2021/01/10 10:10:17;;;;;;;30.20;14.13;;;2.30;93.70;;;;;;5012358;28;20018;-74
2021/01/10 10:12:58;;;;;;;33.80;14.93;;;2.30;94.00;;;;;;4995942;28;20030;-74
2021/01/10 10:15:35;;;;;;;30.48;13.55;;;2.40;93.40;;;;;;5016300;28;20033;-74
2021/01/10 10:18:01;;;;;;;32.67;13.55;;;2.40;93.60;;;;;;5018777;28;20033;-73
2021/01/10 10:20:28;;;;;;;33.55;14.63;;;2.40;93.40;;;;;;4999523;28;20028;-74
2021/01/10 10:22:53;;;;;;;31.50;13.85;;;2.40;93.70;;;;;;5011676;28;20125;-75
2021/01/10 10:25:20;;;;;;;34.10;15.32;;;2.40;93.70;;;;;;5016149;28;20147;-76
2021/01/10 10:28:01;;;;;;;34.70;14.63;;;2.50;93.60;;;;;;5018785;28;20041;-74
2021/01/10 10:30:27;;;;;;;29.38;13.02;;;2.50;93.80;;;;;;5010904;28;20026;-75
2021/01/10 10:32:53;;;;;;;33.35;14.27;;;2.60;93.50;;;;;;5019914;28;20400;-74
2021/01/10 10:35:19;;;;;;;32.60;14.32;;;2.60;93.40;;;;;;5003512;28;20112;-74
2021/01/10 10:37:46;;;;;;;35.42;13.60;;;2.60;93.50;;;;;;5020336;28;20488;-74
2021/01/10 10:40:14;;;;;;;30.98;14.75;;;2.60;93.40;;;;;;4997859;28;20409;-75
2021/01/10 10:42:39;;;;;;;31.90;13.45;;;2.60;93.50;;;;;;5015513;28;20087;-74
2021/01/10 10:45:06;;;;;;;32.90;14.48;;;2.70;93.20;;;;;;5000497;28;20440;-74
2021/01/10 10:47:34;;;;;;;34.38;15.38;;;2.70;93.30;;;;;;5014908;28;20030;-74
2021/01/10 10:50:00;;;;;;;39.63;14.77;;;2.70;93.30;;;;;;5017455;28;20022;-75
2021/01/10 10:52:26;;;;;;;32.17;15.32;;;2.70;93.30;;;;;;5016026;28;20037;-75
2021/01/10 10:54:55;;;;;;;33.58;14.63;;;2.60;93.40;;;;;;5015622;28;20092;-75
2021/01/10 10:57:20;;;;;;;37.35;15.15;;;2.60;93.30;;;;;;5006692;28;20064;-76
2021/01/10 10:59:46;;;;;;;35.03;15.55;;;2.60;93.50;;;;;;5018981;28;20492;-74
2021/01/10 11:02:12;;;;;;;39.28;15.05;;;2.60;93.40;;;;;;5001480;28;20044;-74
2021/01/10 11:04:47;;;;;;;33.10;15.05;;;2.60;93.60;;;;;;5017134;28;20028;-74
2021/01/10 11:07:13;;;;;;;37.03;15.80;;;2.60;93.50;;;;;;5001475;28;20089;-75
2021/01/10 11:09:43;;;;;;;34.05;15.27;;;2.60;93.70;;;;;;5021940;28;20026;-74
2021/01/10 11:12:10;;;;;;;34.03;14.43;;;2.60;93.60;;;;;;5001994;28;20497;-74
2021/01/10 11:14:36;;;;;;;38.17;14.63;;;2.60;93.80;;;;;;5020138;28;21093;-74
2021/01/10 11:17:10;;;;;;;42.38;16.83;;;2.70;93.80;;;;;;4999124;28;20141;-74
2021/01/10 11:19:37;;;;;;;37.05;15.10;;;2.70;93.70;;;;;;5001019;28;20029;-73
2021/01/10 11:22:05;;;;;;;38.28;15.73;;;2.70;93.70;;;;;;5015806;28;20025;-75
2021/01/10 11:24:32;;;;;;;38.67;15.57;;;2.70;94.10;;;;;;5015491;28;20119;-74
2021/01/10 11:26:58;;;;;;;34.00;14.85;;;2.80;93.80;;;;;;5012879;28;20084;-74
2021/01/10 11:29:25;;;;;;;30.83;14.48;;;2.80;93.80;;;;;;5019731;28;20058;-75
2021/01/10 11:31:51;;;;;;;37.38;15.07;;;2.90;93.60;;;;;;5000231;28;20030;-74
2021/01/10 11:34:18;;;;;;;33.13;14.52;;;3.00;93.30;;;;;;5018635;28;20030;-74
2021/01/10 11:36:47;;;;;;;33.28;14.48;;;2.90;93.70;;;;;;5004665;28;20026;-75
2021/01/10 11:39:14;;;;;;;30.33;14.07;;;2.90;93.40;;;;;;5014599;28;20496;-74
2021/01/10 11:41:51;;;;;;;36.45;15.65;;;2.90;93.30;;;;;;5012564;28;20021;-73
2021/01/10 11:44:18;;;;;;;38.05;14.90;;;2.90;93.30;;;;;;5029626;28;20025;-75
2021/01/10 11:46:47;;;;;;;39.08;15.70;;;2.80;93.60;;;;;;5007222;28;20033;-75
2021/01/10 11:49:14;;;;;;;36.88;15.85;;;2.80;93.90;;;;;;4990316;28;20662;-75
2021/01/10 11:51:40;;;;;;;40.25;16.05;;;2.80;93.70;;;;;;5009213;28;20030;-75
2021/01/10 11:54:07;;;;;;;37.95;16.15;;;2.80;93.90;;;;;;5011798;28;20038;-75
2021/01/10 11:56:33;;;;;;;35.78;16.08;;;2.80;93.80;;;;;;4995044;28;20132;-76
2021/01/10 11:58:59;;;;;;;35.47;13.77;;;2.90;93.80;;;;;;5006432;28;20031;-74
2021/01/10 12:01:38;;;;;;;34.67;15.60;;;2.90;93.60;;;;;;5006566;28;20030;-77
2021/01/10 12:04:05;;;;;;;38.28;15.43;;;2.90;93.40;;;;;;5009401;28;20018;-77
2021/01/10 12:06:31;;;;;;;42.03;17.73;;;2.90;93.40;;;;;;5011455;28;20482;-74
2021/01/10 12:08:57;;;;;;;36.03;14.90;;;3.00;93.50;;;;;;5010612;28;20036;-74
2021/01/10 12:11:24;;;;;;;35.13;15.02;;;3.00;93.40;;;;;;5019224;28;20030;-74
2021/01/10 12:13:51;;;;;;;38.15;16.52;;;3.00;93.50;;;;;;5021851;28;20464;-74
2021/01/10 12:16:17;;;;;;;36.45;16.05;;;3.00;93.40;;;;;;5012224;28;20036;-75
2021/01/10 12:18:44;;;;;;;37.85;15.10;;;3.00;93.30;;;;;;5019430;28;20385;-75
2021/01/10 12:21:14;;;;;;;36.20;16.77;;;3.00;93.60;;;;;;5012792;28;20022;-77
2021/01/10 12:23:40;;;;;;;36.30;16.25;;;3.10;93.40;;;;;;5015577;28;20026;-73
2021/01/10 12:26:13;;;;;;;35.55;15.23;;;3.10;93.60;;;;;;5018317;28;20112;-75
2021/01/10 12:28:40;;;;;;;38.55;15.20;;;3.20;93.60;;;;;;5028095;28;20032;-74
2021/01/10 12:31:06;;;;;;;30.85;14.50;;;3.20;93.00;;;;;;5014545;28;20504;-74
2021/01/10 12:33:33;;;;;;;33.97;14.95;;;3.20;93.30;;;;;;4999137;28;20117;-74
2021/01/10 12:35:59;;;;;;;32.08;13.77;;;3.30;93.10;;;;;;5019209;28;20120;-74
2021/01/10 12:38:25;;;;;;;34.90;14.18;;;3.20;93.10;;;;;;5014120;28;20034;-74
2021/01/10 12:40:51;;;;;;;35.38;15.55;;;3.20;93.20;;;;;;5019912;28;20037;-75
2021/01/10 12:43:16;;;;;;;30.58;13.95;;;3.20;93.50;;;;;;5027619;28;20018;-75
2021/01/10 12:45:42;;;;;;;32.72;14.70;;;3.20;93.40;;;;;;5021459;28;20030;-74
2021/01/10 12:48:10;;;;;;;27.63;12.60;;;3.20;93.00;;;;;;5012060;28;20059;-75